sensor_id;sensor_type;location;lat;lon;timestamp;temperature;humidity
8832;DHT22;4452;50.756;4.472;2023-03-26T00:01:30;8.40;99.90
8832;DHT22;4452;50.756;4.472;2023-03-26T00:03:58;8.10;99.90
8832;DHT22;4452;50.756;4.472;2023-03-26T00:06:32;8.00;99.90
8832;DHT22;4452;50.756;4.472;2023-03-26T00:09:01;8.10;99.90
8832;DHT22;4452;50.756;4.472;2023-03-26T00:11:28;8.10;99.90
8832;DHT22;4452;50.756;4.472;2023-03-26T00:13:55;8.20;99.90
8832;DHT22;4452;50.756;4.472;2023-03-26T00:16:26;8.60;99.90
8832;DHT22;4452;50.756;4.472;2023-03-26T00:18:52;8.10;99.90
8832;DHT22;4452;50.756;4.472;2023-03-26T00:21:20;8.10;99.90
8832;DHT22;4452;50.756;4.472;2023-03-26T00:23:46;8.20;99.90
8832;DHT22;4452;50.756;4.472;2023-03-26T00:26:14;8.30;99.90
8832;DHT22;4452;50.756;4.472;2023-03-26T00:28:42;8.20;99.90
8832;DHT22;4452;50.756;4.472;2023-03-26T00:31:10;8.30;99.90
8832;DHT22;4452;50.756;4.472;2023-03-26T00:33:37;8.20;99.90
8832;DHT22;4452;50.756;4.472;2023-03-26T00:36:08;8.30;99.90
8832;DHT22;4452;50.756;4.472;2023-03-26T00:38:40;8.10;99.90
8832;DHT22;4452;50.756;4.472;2023-03-26T00:41:08;8.10;99.90
8832;DHT22;4452;50.756;4.472;2023-03-26T00:43:43;8.30;99.90
8832;DHT22;4452;50.756;4.472;2023-03-26T00:46:09;8.00;99.90
8832;DHT22;4452;50.756;4.472;2023-03-26T00:48:35;8.10;99.90
8832;DHT22;4452;50.756;4.472;2023-03-26T00:51:03;8.30;99.90
8832;DHT22;4452;50.756;4.472;2023-03-26T00:53:30;8.10;99.90
8832;DHT22;4452;50.756;4.472;2023-03-26T00:55:56;8.10;99.90
8832;DHT22;4452;50.756;4.472;2023-03-26T00:58:25;8.20;99.90
8832;DHT22;4452;50.756;4.472;2023-03-26T01:00:57;8.40;99.90
8832;DHT22;4452;50.756;4.472;2023-03-26T01:03:25;7.90;99.90
8832;DHT22;4452;50.756;4.472;2023-03-26T01:05:58;8.00;99.90
8832;DHT22;4452;50.756;4.472;2023-03-26T01:08:56;7.90;99.90
8832;DHT22;4452;50.756;4.472;2023-03-26T01:11:30;7.90;99.90
8832;DHT22;4452;50.756;4.472;2023-03-26T01:14:07;7.90;99.90
8832;DHT22;4452;50.756;4.472;2023-03-26T01:16:53;7.90;99.90
8832;DHT22;4452;50.756;4.472;2023-03-26T01:19:50;8.00;99.90
8832;DHT22;4452;50.756;4.472;2023-03-26T01:22:23;7.90;99.90
8832;DHT22;4452;50.756;4.472;2023-03-26T01:24:50;7.90;99.90
8832;DHT22;4452;50.756;4.472;2023-03-26T01:27:28;8.10;99.90
8832;DHT22;4452;50.756;4.472;2023-03-26T01:32:56;8.40;99.90
8832;DHT22;4452;50.756;4.472;2023-03-26T01:40:44;7.90;99.90
8832;DHT22;4452;50.756;4.472;2023-03-26T01:43:23;7.90;99.90
8832;DHT22;4452;50.756;4.472;2023-03-26T01:45:50;7.90;99.90
8832;DHT22;4452;50.756;4.472;2023-03-26T01:48:16;7.90;99.90
8832;DHT22;4452;50.756;4.472;2023-03-26T01:50:43;7.90;99.90
8832;DHT22;4452;50.756;4.472;2023-03-26T01:53:10;7.80;99.90
8832;DHT22;4452;50.756;4.472;2023-03-26T02:04:53;7.70;99.90
8832;DHT22;4452;50.756;4.472;2023-03-26T02:07:27;7.70;99.90
8832;DHT22;4452;50.756;4.472;2023-03-26T02:10:14;7.60;99.90
8832;DHT22;4452;50.756;4.472;2023-03-26T02:12:42;7.80;99.90
8832;DHT22;4452;50.756;4.472;2023-03-26T02:15:09;7.70;99.90
8832;DHT22;4452;50.756;4.472;2023-03-26T02:17:35;7.60;99.90
8832;DHT22;4452;50.756;4.472;2023-03-26T02:20:06;7.40;99.90
8832;DHT22;4452;50.756;4.472;2023-03-26T02:22:34;7.60;99.90
8832;DHT22;4452;50.756;4.472;2023-03-26T02:25:07;7.60;99.90
8832;DHT22;4452;50.756;4.472;2023-03-26T02:27:34;7.60;99.90
8832;DHT22;4452;50.756;4.472;2023-03-26T02:30:00;7.70;99.90
8832;DHT22;4452;50.756;4.472;2023-03-26T02:32:26;7.90;99.90
8832;DHT22;4452;50.756;4.472;2023-03-26T02:34:52;7.60;99.90
8832;DHT22;4452;50.756;4.472;2023-03-26T02:37:18;7.70;99.90
8832;DHT22;4452;50.756;4.472;2023-03-26T02:39:44;7.70;99.90
8832;DHT22;4452;50.756;4.472;2023-03-26T02:42:10;7.70;99.90
8832;DHT22;4452;50.756;4.472;2023-03-26T02:44:36;8.10;99.90
8832;DHT22;4452;50.756;4.472;2023-03-26T02:47:04;8.00;99.90
8832;DHT22;4452;50.756;4.472;2023-03-26T02:49:30;7.70;99.90
8832;DHT22;4452;50.756;4.472;2023-03-26T02:51:56;7.80;99.90
8832;DHT22;4452;50.756;4.472;2023-03-26T02:54:22;7.70;99.90
8832;DHT22;4452;50.756;4.472;2023-03-26T02:56:48;8.10;99.90
8832;DHT22;4452;50.756;4.472;2023-03-26T02:59:13;7.70;99.90
8832;DHT22;4452;50.756;4.472;2023-03-26T03:01:39;7.90;99.90
8832;DHT22;4452;50.756;4.472;2023-03-26T03:04:09;8.00;99.90
8832;DHT22;4452;50.756;4.472;2023-03-26T03:06:36;7.70;99.90
8832;DHT22;4452;50.756;4.472;2023-03-26T03:09:04;7.80;99.90
8832;DHT22;4452;50.756;4.472;2023-03-26T03:11:30;8.10;99.90
8832;DHT22;4452;50.756;4.472;2023-03-26T03:13:56;7.70;99.90
8832;DHT22;4452;50.756;4.472;2023-03-26T03:16:22;7.90;99.90
8832;DHT22;4452;50.756;4.472;2023-03-26T03:18:48;7.70;99.90
8832;DHT22;4452;50.756;4.472;2023-03-26T03:21:19;7.70;99.90
8832;DHT22;4452;50.756;4.472;2023-03-26T03:23:45;7.70;99.90
8832;DHT22;4452;50.756;4.472;2023-03-26T03:26:17;7.80;99.90
8832;DHT22;4452;50.756;4.472;2023-03-26T03:28:48;7.70;99.90
8832;DHT22;4452;50.756;4.472;2023-03-26T03:31:16;7.70;99.90
8832;DHT22;4452;50.756;4.472;2023-03-26T03:33:42;7.70;99.90
8832;DHT22;4452;50.756;4.472;2023-03-26T03:36:13;7.70;99.90
8832;DHT22;4452;50.756;4.472;2023-03-26T03:38:40;8.10;99.90
8832;DHT22;4452;50.756;4.472;2023-03-26T03:41:06;7.70;99.90
8832;DHT22;4452;50.756;4.472;2023-03-26T03:43:33;7.70;99.90
8832;DHT22;4452;50.756;4.472;2023-03-26T03:45:59;7.90;99.90
8832;DHT22;4452;50.756;4.472;2023-03-26T03:48:25;7.90;99.90
8832;DHT22;4452;50.756;4.472;2023-03-26T03:50:52;7.90;99.90
8832;DHT22;4452;50.756;4.472;2023-03-26T03:53:18;7.60;99.90
8832;DHT22;4452;50.756;4.472;2023-03-26T03:55:44;8.00;99.90
8832;DHT22;4452;50.756;4.472;2023-03-26T03:58:18;8.00;99.90
8832;DHT22;4452;50.756;4.472;2023-03-26T04:00:47;8.10;99.90
8832;DHT22;4452;50.756;4.472;2023-03-26T04:03:14;7.90;99.90
8832;DHT22;4452;50.756;4.472;2023-03-26T04:05:39;7.70;99.90
8832;DHT22;4452;50.756;4.472;2023-03-26T04:08:05;7.80;99.90
8832;DHT22;4452;50.756;4.472;2023-03-26T04:10:31;7.70;99.90
8832;DHT22;4452;50.756;4.472;2023-03-26T04:12:56;8.00;99.90
8832;DHT22;4452;50.756;4.472;2023-03-26T04:15:22;7.70;99.90
8832;DHT22;4452;50.756;4.472;2023-03-26T04:17:48;8.20;99.90
8832;DHT22;4452;50.756;4.472;2023-03-26T04:20:13;7.80;99.90
8832;DHT22;4452;50.756;4.472;2023-03-26T04:22:41;7.80;99.90
8832;DHT22;4452;50.756;4.472;2023-03-26T04:25:08;7.80;99.90
8832;DHT22;4452;50.756;4.472;2023-03-26T04:27:35;8.00;99.90
8832;DHT22;4452;50.756;4.472;2023-03-26T04:30:02;7.80;99.90
8832;DHT22;4452;50.756;4.472;2023-03-26T04:32:29;7.70;99.90
8832;DHT22;4452;50.756;4.472;2023-03-26T04:34:59;8.00;99.90
8832;DHT22;4452;50.756;4.472;2023-03-26T04:37:38;7.90;99.90
8832;DHT22;4452;50.756;4.472;2023-03-26T04:40:10;7.80;99.90
8832;DHT22;4452;50.756;4.472;2023-03-26T04:42:37;7.90;99.90
8832;DHT22;4452;50.756;4.472;2023-03-26T04:45:06;8.00;99.90
8832;DHT22;4452;50.756;4.472;2023-03-26T04:47:32;7.90;99.90
8832;DHT22;4452;50.756;4.472;2023-03-26T04:50:06;8.00;99.90
8832;DHT22;4452;50.756;4.472;2023-03-26T04:52:33;7.90;99.90
8832;DHT22;4452;50.756;4.472;2023-03-26T04:54:59;7.90;99.90
8832;DHT22;4452;50.756;4.472;2023-03-26T04:57:34;7.90;99.90
8832;DHT22;4452;50.756;4.472;2023-03-26T05:00:03;8.20;99.90
8832;DHT22;4452;50.756;4.472;2023-03-26T05:02:44;8.00;99.90
8832;DHT22;4452;50.756;4.472;2023-03-26T05:05:10;7.90;99.90
8832;DHT22;4452;50.756;4.472;2023-03-26T05:07:36;8.20;99.90
8832;DHT22;4452;50.756;4.472;2023-03-26T05:10:03;8.00;99.90
8832;DHT22;4452;50.756;4.472;2023-03-26T05:12:29;8.00;99.90
8832;DHT22;4452;50.756;4.472;2023-03-26T05:14:55;8.00;99.90
8832;DHT22;4452;50.756;4.472;2023-03-26T05:17:22;8.20;99.90
8832;DHT22;4452;50.756;4.472;2023-03-26T05:19:49;7.90;99.90
8832;DHT22;4452;50.756;4.472;2023-03-26T05:22:17;8.00;99.90
8832;DHT22;4452;50.756;4.472;2023-03-26T05:24:43;7.90;99.90
8832;DHT22;4452;50.756;4.472;2023-03-26T05:27:13;7.90;99.90
8832;DHT22;4452;50.756;4.472;2023-03-26T05:29:39;7.90;99.90
8832;DHT22;4452;50.756;4.472;2023-03-26T05:32:06;7.90;99.90
8832;DHT22;4452;50.756;4.472;2023-03-26T05:34:32;7.90;99.90
8832;DHT22;4452;50.756;4.472;2023-03-26T05:36:58;7.90;99.90
8832;DHT22;4452;50.756;4.472;2023-03-26T05:39:24;7.80;99.90
8832;DHT22;4452;50.756;4.472;2023-03-26T05:41:51;7.80;99.90
8832;DHT22;4452;50.756;4.472;2023-03-26T05:44:18;7.80;99.90
8832;DHT22;4452;50.756;4.472;2023-03-26T05:46:43;7.80;99.90
8832;DHT22;4452;50.756;4.472;2023-03-26T05:49:09;7.80;99.90
8832;DHT22;4452;50.756;4.472;2023-03-26T05:51:34;7.80;99.90
8832;DHT22;4452;50.756;4.472;2023-03-26T05:54:00;7.70;99.90
8832;DHT22;4452;50.756;4.472;2023-03-26T05:56:26;7.80;99.90
8832;DHT22;4452;50.756;4.472;2023-03-26T05:58:52;7.70;99.90
8832;DHT22;4452;50.756;4.472;2023-03-26T06:01:18;7.70;99.90
8832;DHT22;4452;50.756;4.472;2023-03-26T06:03:44;7.80;99.90
8832;DHT22;4452;50.756;4.472;2023-03-26T06:06:15;7.70;99.90
8832;DHT22;4452;50.756;4.472;2023-03-26T06:08:42;7.70;99.90
8832;DHT22;4452;50.756;4.472;2023-03-26T06:11:09;7.90;99.90
8832;DHT22;4452;50.756;4.472;2023-03-26T06:13:37;7.60;99.90
8832;DHT22;4452;50.756;4.472;2023-03-26T06:16:03;7.40;99.90
8832;DHT22;4452;50.756;4.472;2023-03-26T06:18:28;7.50;99.90
8832;DHT22;4452;50.756;4.472;2023-03-26T06:20:54;7.50;99.90
8832;DHT22;4452;50.756;4.472;2023-03-26T06:23:20;7.90;99.90
8832;DHT22;4452;50.756;4.472;2023-03-26T06:25:47;7.60;99.90
8832;DHT22;4452;50.756;4.472;2023-03-26T06:28:14;7.60;99.90
8832;DHT22;4452;50.756;4.472;2023-03-26T06:30:40;7.30;99.90
8832;DHT22;4452;50.756;4.472;2023-03-26T06:33:05;7.20;99.90
8832;DHT22;4452;50.756;4.472;2023-03-26T06:35:31;7.30;99.90
8832;DHT22;4452;50.756;4.472;2023-03-26T06:37:58;7.70;99.90
8832;DHT22;4452;50.756;4.472;2023-03-26T06:40:23;7.50;99.90
8832;DHT22;4452;50.756;4.472;2023-03-26T06:42:49;7.10;99.90
8832;DHT22;4452;50.756;4.472;2023-03-26T06:45:15;7.60;99.90
8832;DHT22;4452;50.756;4.472;2023-03-26T06:47:41;7.20;99.90
8832;DHT22;4452;50.756;4.472;2023-03-26T06:50:07;7.60;99.90
8832;DHT22;4452;50.756;4.472;2023-03-26T06:52:33;7.00;99.90
8832;DHT22;4452;50.756;4.472;2023-03-26T06:54:59;7.10;99.90
8832;DHT22;4452;50.756;4.472;2023-03-26T06:57:25;7.00;99.90
8832;DHT22;4452;50.756;4.472;2023-03-26T06:59:50;7.40;99.90
8832;DHT22;4452;50.756;4.472;2023-03-26T07:02:16;7.10;99.90
8832;DHT22;4452;50.756;4.472;2023-03-26T07:04:42;7.10;99.90
8832;DHT22;4452;50.756;4.472;2023-03-26T07:07:07;7.00;99.90
8832;DHT22;4452;50.756;4.472;2023-03-26T07:09:33;6.90;99.90
8832;DHT22;4452;50.756;4.472;2023-03-26T07:11:59;6.90;99.90
8832;DHT22;4452;50.756;4.472;2023-03-26T07:14:24;6.90;99.90
8832;DHT22;4452;50.756;4.472;2023-03-26T07:16:52;7.10;99.90
8832;DHT22;4452;50.756;4.472;2023-03-26T07:19:18;6.80;99.90
8832;DHT22;4452;50.756;4.472;2023-03-26T07:21:44;6.70;99.90
8832;DHT22;4452;50.756;4.472;2023-03-26T07:24:11;6.70;99.90
8832;DHT22;4452;50.756;4.472;2023-03-26T07:30:07;6.80;99.90
8832;DHT22;4452;50.756;4.472;2023-03-26T07:32:46;6.80;99.90
8832;DHT22;4452;50.756;4.472;2023-03-26T07:46:22;6.80;99.90
8832;DHT22;4452;50.756;4.472;2023-03-26T07:48:50;6.80;99.90
8832;DHT22;4452;50.756;4.472;2023-03-26T07:51:19;6.80;99.90
8832;DHT22;4452;50.756;4.472;2023-03-26T07:53:46;6.90;99.90
8832;DHT22;4452;50.756;4.472;2023-03-26T07:59:26;6.90;99.90
8832;DHT22;4452;50.756;4.472;2023-03-26T08:05:06;7.00;99.90
8832;DHT22;4452;50.756;4.472;2023-03-26T08:16:30;7.30;99.90
8832;DHT22;4452;50.756;4.472;2023-03-26T08:21:54;7.30;99.90
8832;DHT22;4452;50.756;4.472;2023-03-26T08:27:12;7.30;99.90
8832;DHT22;4452;50.756;4.472;2023-03-26T08:32:18;7.40;99.90
8832;DHT22;4452;50.756;4.472;2023-03-26T08:34:46;7.30;99.90
8832;DHT22;4452;50.756;4.472;2023-03-26T08:37:14;7.30;99.90
8832;DHT22;4452;50.756;4.472;2023-03-26T08:39:42;7.20;99.90
8832;DHT22;4452;50.756;4.472;2023-03-26T08:50:29;7.40;99.90
8832;DHT22;4452;50.756;4.472;2023-03-26T09:04:51;7.50;99.90
8832;DHT22;4452;50.756;4.472;2023-03-26T09:10:07;7.50;99.90
8832;DHT22;4452;50.756;4.472;2023-03-26T09:18:51;7.60;99.90
8832;DHT22;4452;50.756;4.472;2023-03-26T09:30:20;7.50;99.90
8832;DHT22;4452;50.756;4.472;2023-03-26T09:35:53;7.60;99.90
8832;DHT22;4452;50.756;4.472;2023-03-26T09:41:41;7.60;99.90
8832;DHT22;4452;50.756;4.472;2023-03-26T09:55:05;7.60;99.90
8832;DHT22;4452;50.756;4.472;2023-03-26T09:58:03;7.90;99.90
8832;DHT22;4452;50.756;4.472;2023-03-26T10:05:57;7.50;99.90
8832;DHT22;4452;50.756;4.472;2023-03-26T10:22:59;7.60;99.90
8832;DHT22;4452;50.756;4.472;2023-03-26T10:34:09;7.70;99.90
8832;DHT22;4452;50.756;4.472;2023-03-26T10:36:56;7.70;99.90
8832;DHT22;4452;50.756;4.472;2023-03-26T10:39:47;7.80;99.90
8832;DHT22;4452;50.756;4.472;2023-03-26T10:56:00;7.60;99.90
8832;DHT22;4452;50.756;4.472;2023-03-26T10:58:34;7.80;99.90
8832;DHT22;4452;50.756;4.472;2023-03-26T11:01:50;7.70;99.90
8832;DHT22;4452;50.756;4.472;2023-03-26T11:03:54;7.70;99.90
8832;DHT22;4452;50.756;4.472;2023-03-26T11:20:14;7.90;99.90
8832;DHT22;4452;50.756;4.472;2023-03-26T11:25:26;7.90;99.90
8832;DHT22;4452;50.756;4.472;2023-03-26T11:33:35;7.90;99.90
8832;DHT22;4452;50.756;4.472;2023-03-26T11:36:07;7.90;99.90
8832;DHT22;4452;50.756;4.472;2023-03-26T11:38:40;7.90;99.90
8832;DHT22;4452;50.756;4.472;2023-03-26T11:41:22;8.00;99.90
8832;DHT22;4452;50.756;4.472;2023-03-26T11:44:00;8.00;99.90
8832;DHT22;4452;50.756;4.472;2023-03-26T11:46:33;7.80;99.90
8832;DHT22;4452;50.756;4.472;2023-03-26T11:49:07;8.00;99.90
8832;DHT22;4452;50.756;4.472;2023-03-26T11:51:38;8.10;99.90
8832;DHT22;4452;50.756;4.472;2023-03-26T11:54:06;8.10;99.90
8832;DHT22;4452;50.756;4.472;2023-03-26T12:04:40;8.30;99.90
8832;DHT22;4452;50.756;4.472;2023-03-26T12:07:18;8.10;99.90
8832;DHT22;4452;50.756;4.472;2023-03-26T12:09:54;8.20;99.90
8832;DHT22;4452;50.756;4.472;2023-03-26T12:12:24;8.10;99.90
8832;DHT22;4452;50.756;4.472;2023-03-26T12:14:50;8.40;99.90
8832;DHT22;4452;50.756;4.472;2023-03-26T12:17:34;8.10;99.90
8832;DHT22;4452;50.756;4.472;2023-03-26T12:20:20;8.20;99.90
8832;DHT22;4452;50.756;4.472;2023-03-26T12:22:47;8.40;99.90
8832;DHT22;4452;50.756;4.472;2023-03-26T12:25:27;8.70;99.90
8832;DHT22;4452;50.756;4.472;2023-03-26T12:30:39;8.40;99.90
8832;DHT22;4452;50.756;4.472;2023-03-26T12:33:06;8.40;99.90
8832;DHT22;4452;50.756;4.472;2023-03-26T12:35:38;8.30;99.90
8832;DHT22;4452;50.756;4.472;2023-03-26T12:38:31;8.30;99.90
8832;DHT22;4452;50.756;4.472;2023-03-26T12:41:16;8.30;99.90
8832;DHT22;4452;50.756;4.472;2023-03-26T12:43:52;8.70;99.90
8832;DHT22;4452;50.756;4.472;2023-03-26T12:46:28;8.40;99.90
8832;DHT22;4452;50.756;4.472;2023-03-26T12:48:58;8.50;99.90
8832;DHT22;4452;50.756;4.472;2023-03-26T12:51:38;8.50;99.90
8832;DHT22;4452;50.756;4.472;2023-03-26T12:57:12;8.70;99.90
8832;DHT22;4452;50.756;4.472;2023-03-26T13:10:49;8.60;99.90
8832;DHT22;4452;50.756;4.472;2023-03-26T13:19:08;8.40;99.90
8832;DHT22;4452;50.756;4.472;2023-03-26T13:21:49;8.40;99.90
8832;DHT22;4452;50.756;4.472;2023-03-26T13:24:30;8.40;99.90
8832;DHT22;4452;50.756;4.472;2023-03-26T13:29:36;8.30;99.90
8832;DHT22;4452;50.756;4.472;2023-03-26T13:32:47;8.30;99.90
8832;DHT22;4452;50.756;4.472;2023-03-26T13:35:36;8.40;99.90
8832;DHT22;4452;50.756;4.472;2023-03-26T13:47:15;8.40;99.90
8832;DHT22;4452;50.756;4.472;2023-03-26T13:49:56;8.40;99.90
8832;DHT22;4452;50.756;4.472;2023-03-26T13:52:28;8.40;99.90
8832;DHT22;4452;50.756;4.472;2023-03-26T13:57:59;8.50;99.90
8832;DHT22;4452;50.756;4.472;2023-03-26T14:00:54;8.50;99.90
8832;DHT22;4452;50.756;4.472;2023-03-26T14:03:29;8.60;99.90
8832;DHT22;4452;50.756;4.472;2023-03-26T14:06:00;8.30;99.90
8832;DHT22;4452;50.756;4.472;2023-03-26T14:08:37;8.50;99.90
8832;DHT22;4452;50.756;4.472;2023-03-26T14:11:09;8.00;99.90
8832;DHT22;4452;50.756;4.472;2023-03-26T14:13:56;7.90;99.90
8832;DHT22;4452;50.756;4.472;2023-03-26T14:16:28;7.80;99.90
8832;DHT22;4452;50.756;4.472;2023-03-26T14:19:10;7.90;99.90
8832;DHT22;4452;50.756;4.472;2023-03-26T14:32:51;8.10;99.90
8832;DHT22;4452;50.756;4.472;2023-03-26T14:35:35;8.00;99.90
8832;DHT22;4452;50.756;4.472;2023-03-26T14:46:47;8.10;99.90
8832;DHT22;4452;50.756;4.472;2023-03-26T14:54:32;8.80;99.90
8832;DHT22;4452;50.756;4.472;2023-03-26T14:57:26;8.30;99.90
8832;DHT22;4452;50.756;4.472;2023-03-26T15:12:00;8.30;99.90
8832;DHT22;4452;50.756;4.472;2023-03-26T15:17:50;8.20;99.90
8832;DHT22;4452;50.756;4.472;2023-03-26T15:20:48;8.20;99.90
8832;DHT22;4452;50.756;4.472;2023-03-26T15:23:41;8.00;99.90
8832;DHT22;4452;50.756;4.472;2023-03-26T15:40:25;8.50;99.90
8832;DHT22;4452;50.756;4.472;2023-03-26T15:43:09;8.40;99.90
8832;DHT22;4452;50.756;4.472;2023-03-26T15:45:45;8.40;99.90
8832;DHT22;4452;50.756;4.472;2023-03-26T15:50:52;8.30;99.90
8832;DHT22;4452;50.756;4.472;2023-03-26T15:56:25;8.40;99.90
8832;DHT22;4452;50.756;4.472;2023-03-26T16:07:13;8.30;99.90
8832;DHT22;4452;50.756;4.472;2023-03-26T16:15:37;8.30;99.90
8832;DHT22;4452;50.756;4.472;2023-03-26T16:23:29;8.20;99.90
8832;DHT22;4452;50.756;4.472;2023-03-26T16:31:34;8.10;99.90
8832;DHT22;4452;50.756;4.472;2023-03-26T16:36:41;7.90;99.90
8832;DHT22;4452;50.756;4.472;2023-03-26T16:39:25;7.90;99.90
8832;DHT22;4452;50.756;4.472;2023-03-26T16:42:28;7.90;99.90
8832;DHT22;4452;50.756;4.472;2023-03-26T16:53:20;7.80;99.90
8832;DHT22;4452;50.756;4.472;2023-03-26T16:55:58;7.90;99.90
8832;DHT22;4452;50.756;4.472;2023-03-26T16:58:52;7.80;99.90
8832;DHT22;4452;50.756;4.472;2023-03-26T17:01:42;7.80;99.90
8832;DHT22;4452;50.756;4.472;2023-03-26T17:04:22;7.80;99.90
8832;DHT22;4452;50.756;4.472;2023-03-26T17:12:05;7.80;99.90
8832;DHT22;4452;50.756;4.472;2023-03-26T17:17:52;7.90;99.90
8832;DHT22;4452;50.756;4.472;2023-03-26T17:23:29;8.00;99.90
8832;DHT22;4452;50.756;4.472;2023-03-26T17:33:28;7.80;99.90
8832;DHT22;4452;50.756;4.472;2023-03-26T17:41:47;7.70;99.90
8832;DHT22;4452;50.756;4.472;2023-03-26T17:44:21;8.10;99.90
8832;DHT22;4452;50.756;4.472;2023-03-26T17:46:50;8.00;99.90
8832;DHT22;4452;50.756;4.472;2023-03-26T17:49:27;7.80;99.90
8832;DHT22;4452;50.756;4.472;2023-03-26T17:52:18;7.70;99.90
8832;DHT22;4452;50.756;4.472;2023-03-26T17:54:50;7.70;99.90
8832;DHT22;4452;50.756;4.472;2023-03-26T17:59:54;7.60;99.90
8832;DHT22;4452;50.756;4.472;2023-03-26T18:02:30;7.60;99.90
8832;DHT22;4452;50.756;4.472;2023-03-26T18:04:58;7.60;99.90
8832;DHT22;4452;50.756;4.472;2023-03-26T18:16:40;7.50;99.90
8832;DHT22;4452;50.756;4.472;2023-03-26T18:19:13;7.40;99.90
8832;DHT22;4452;50.756;4.472;2023-03-26T18:22:17;7.40;99.90
8832;DHT22;4452;50.756;4.472;2023-03-26T18:24:44;7.30;99.90
8832;DHT22;4452;50.756;4.472;2023-03-26T18:27:15;7.30;99.90
8832;DHT22;4452;50.756;4.472;2023-03-26T18:29:45;7.30;99.90
8832;DHT22;4452;50.756;4.472;2023-03-26T18:32:24;7.30;99.90
8832;DHT22;4452;50.756;4.472;2023-03-26T18:34:59;7.60;99.90
8832;DHT22;4452;50.756;4.472;2023-03-26T18:37:32;7.30;99.90
8832;DHT22;4452;50.756;4.472;2023-03-26T18:40:09;7.30;99.90
8832;DHT22;4452;50.756;4.472;2023-03-26T18:42:44;7.30;99.90
8832;DHT22;4452;50.756;4.472;2023-03-26T18:48:12;7.20;99.90
8832;DHT22;4452;50.756;4.472;2023-03-26T18:50:44;7.30;99.90
8832;DHT22;4452;50.756;4.472;2023-03-26T18:53:21;7.20;99.90
8832;DHT22;4452;50.756;4.472;2023-03-26T18:55:50;7.20;99.90
8832;DHT22;4452;50.756;4.472;2023-03-26T18:58:36;7.10;99.90
8832;DHT22;4452;50.756;4.472;2023-03-26T19:01:07;7.10;99.90
8832;DHT22;4452;50.756;4.472;2023-03-26T19:03:36;7.10;99.90
8832;DHT22;4452;50.756;4.472;2023-03-26T19:06:06;7.10;99.90
8832;DHT22;4452;50.756;4.472;2023-03-26T19:08:35;7.00;99.90
8832;DHT22;4452;50.756;4.472;2023-03-26T19:11:05;7.00;99.90
8832;DHT22;4452;50.756;4.472;2023-03-26T19:13:34;7.00;99.90
8832;DHT22;4452;50.756;4.472;2023-03-26T19:16:04;7.00;99.90
8832;DHT22;4452;50.756;4.472;2023-03-26T19:18:31;6.90;99.90
8832;DHT22;4452;50.756;4.472;2023-03-26T19:20:59;6.90;99.90
8832;DHT22;4452;50.756;4.472;2023-03-26T19:23:36;6.80;99.90
8832;DHT22;4452;50.756;4.472;2023-03-26T19:26:05;6.80;99.90
8832;DHT22;4452;50.756;4.472;2023-03-26T19:28:37;6.80;99.90
8832;DHT22;4452;50.756;4.472;2023-03-26T19:31:15;6.90;99.90
8832;DHT22;4452;50.756;4.472;2023-03-26T19:33:44;6.70;99.90
8832;DHT22;4452;50.756;4.472;2023-03-26T19:36:19;6.80;99.90
8832;DHT22;4452;50.756;4.472;2023-03-26T19:38:51;6.70;99.90
8832;DHT22;4452;50.756;4.472;2023-03-26T19:44:15;6.60;99.90
8832;DHT22;4452;50.756;4.472;2023-03-26T19:46:44;6.60;99.90
8832;DHT22;4452;50.756;4.472;2023-03-26T19:49:38;6.50;99.90
8832;DHT22;4452;50.756;4.472;2023-03-26T19:52:45;6.50;99.90
8832;DHT22;4452;50.756;4.472;2023-03-26T19:57:35;6.40;99.90
8832;DHT22;4452;50.756;4.472;2023-03-26T20:00:06;6.40;99.90
8832;DHT22;4452;50.756;4.472;2023-03-26T20:02:38;6.40;99.90
8832;DHT22;4452;50.756;4.472;2023-03-26T20:05:04;6.40;99.90
8832;DHT22;4452;50.756;4.472;2023-03-26T20:07:31;6.40;99.90
8832;DHT22;4452;50.756;4.472;2023-03-26T20:09:58;6.30;99.90
8832;DHT22;4452;50.756;4.472;2023-03-26T20:12:24;6.30;99.90
8832;DHT22;4452;50.756;4.472;2023-03-26T20:14:50;6.40;99.90
8832;DHT22;4452;50.756;4.472;2023-03-26T20:17:18;6.30;99.90
8832;DHT22;4452;50.756;4.472;2023-03-26T20:19:45;6.30;99.90
8832;DHT22;4452;50.756;4.472;2023-03-26T20:22:16;6.30;99.90
8832;DHT22;4452;50.756;4.472;2023-03-26T20:24:44;6.30;99.90
8832;DHT22;4452;50.756;4.472;2023-03-26T20:27:10;6.30;99.90
8832;DHT22;4452;50.756;4.472;2023-03-26T20:29:40;6.30;99.90
8832;DHT22;4452;50.756;4.472;2023-03-26T20:32:26;6.20;99.90
8832;DHT22;4452;50.756;4.472;2023-03-26T20:34:52;6.20;99.90
8832;DHT22;4452;50.756;4.472;2023-03-26T20:37:18;6.10;99.90
8832;DHT22;4452;50.756;4.472;2023-03-26T20:39:44;6.10;99.90
8832;DHT22;4452;50.756;4.472;2023-03-26T20:42:10;6.20;99.90
8832;DHT22;4452;50.756;4.472;2023-03-26T20:44:38;6.10;99.90
8832;DHT22;4452;50.756;4.472;2023-03-26T20:47:03;6.10;99.90
8832;DHT22;4452;50.756;4.472;2023-03-26T20:49:30;6.10;99.90
8832;DHT22;4452;50.756;4.472;2023-03-26T20:51:59;6.00;99.90
8832;DHT22;4452;50.756;4.472;2023-03-26T20:54:27;6.00;99.90
8832;DHT22;4452;50.756;4.472;2023-03-26T20:56:59;6.00;99.90
8832;DHT22;4452;50.756;4.472;2023-03-26T20:59:28;6.00;99.90
8832;DHT22;4452;50.756;4.472;2023-03-26T21:01:57;6.00;99.90
8832;DHT22;4452;50.756;4.472;2023-03-26T21:04:29;6.00;99.90
8832;DHT22;4452;50.756;4.472;2023-03-26T21:06:57;6.00;99.90
8832;DHT22;4452;50.756;4.472;2023-03-26T21:09:26;6.00;99.90
8832;DHT22;4452;50.756;4.472;2023-03-26T21:12:06;6.00;99.90
8832;DHT22;4452;50.756;4.472;2023-03-26T21:14:42;6.00;99.90
8832;DHT22;4452;50.756;4.472;2023-03-26T21:17:14;6.00;99.90
8832;DHT22;4452;50.756;4.472;2023-03-26T21:19:41;5.90;99.90
8832;DHT22;4452;50.756;4.472;2023-03-26T21:25:36;6.00;99.90
8832;DHT22;4452;50.756;4.472;2023-03-26T21:28:19;5.90;99.90
8832;DHT22;4452;50.756;4.472;2023-03-26T21:30:48;5.90;99.90
8832;DHT22;4452;50.756;4.472;2023-03-26T21:33:15;5.90;99.90
8832;DHT22;4452;50.756;4.472;2023-03-26T21:35:43;5.90;99.90
8832;DHT22;4452;50.756;4.472;2023-03-26T21:38:09;5.80;99.90
8832;DHT22;4452;50.756;4.472;2023-03-26T21:40:36;5.80;99.90
8832;DHT22;4452;50.756;4.472;2023-03-26T21:43:03;5.90;99.90
8832;DHT22;4452;50.756;4.472;2023-03-26T21:45:28;5.80;99.90
8832;DHT22;4452;50.756;4.472;2023-03-26T21:47:55;5.80;99.90
8832;DHT22;4452;50.756;4.472;2023-03-26T21:50:21;5.80;99.90
8832;DHT22;4452;50.756;4.472;2023-03-26T21:52:49;5.90;99.90
8832;DHT22;4452;50.756;4.472;2023-03-26T21:55:20;5.90;99.90
8832;DHT22;4452;50.756;4.472;2023-03-26T21:58:06;5.90;99.90
8832;DHT22;4452;50.756;4.472;2023-03-26T22:05:45;5.90;99.90
8832;DHT22;4452;50.756;4.472;2023-03-26T22:10:56;5.80;99.90
8832;DHT22;4452;50.756;4.472;2023-03-26T22:13:22;5.70;99.90
8832;DHT22;4452;50.756;4.472;2023-03-26T22:15:47;5.70;99.90
8832;DHT22;4452;50.756;4.472;2023-03-26T22:18:13;5.80;99.90
8832;DHT22;4452;50.756;4.472;2023-03-26T22:20:39;5.80;99.90
8832;DHT22;4452;50.756;4.472;2023-03-26T22:23:08;5.80;99.90
8832;DHT22;4452;50.756;4.472;2023-03-26T22:25:34;5.70;99.90
8832;DHT22;4452;50.756;4.472;2023-03-26T22:28:00;5.70;99.90
8832;DHT22;4452;50.756;4.472;2023-03-26T22:30:26;5.80;99.90
8832;DHT22;4452;50.756;4.472;2023-03-26T22:32:52;5.70;99.90
8832;DHT22;4452;50.756;4.472;2023-03-26T22:35:18;5.60;99.90
8832;DHT22;4452;50.756;4.472;2023-03-26T22:37:44;5.60;99.90
8832;DHT22;4452;50.756;4.472;2023-03-26T22:40:10;5.60;99.90
8832;DHT22;4452;50.756;4.472;2023-03-26T22:42:40;5.40;99.90
8832;DHT22;4452;50.756;4.472;2023-03-26T22:45:06;5.40;99.90
8832;DHT22;4452;50.756;4.472;2023-03-26T22:47:32;5.30;99.90
8832;DHT22;4452;50.756;4.472;2023-03-26T22:49:59;5.30;99.90
8832;DHT22;4452;50.756;4.472;2023-03-26T22:52:27;5.30;99.90
8832;DHT22;4452;50.756;4.472;2023-03-26T22:54:52;5.30;99.90